LVFEL SABE-SAZB
Flight info
| Callsign | LVFEL |
|---|---|
| Flight time | 0h 58m |
| Altitude | 21000 |
| Route | PAL9 GBE UT694 XODIK UW18 MOXAN MOXA2Q |
| Aircraft | A20N/M-S/C |
Departure
| Time | 2026-05-06 22:51 |
|---|---|
| Airport | Aeroparque Jorge Newbery (SABE) |
Arrival
| Time | 2026-05-06 23:49 |
|---|---|
| Airport | Comandante Espora Airport (SAZB) |
| Time | Latitude | Longitude | Altitude | Speed | Heading |
|---|---|---|---|---|---|
| 2026-05-06 22:24 | -34.55769 | -58.41529 | 26 ft | 0 kts | 211° |
| 2026-05-06 22:44 | -34.55764 | -58.41525 | 26 ft | 2 kts | 211° |
| 2026-05-06 22:45 | -34.55752 | -58.41515 | 26 ft | 2 kts | 224° |
| 2026-05-06 22:45 | -34.55742 | -58.41502 | 26 ft | 2 kts | 240° |
| 2026-05-06 22:45 | -34.55736 | -58.41486 | 26 ft | 2 kts | 256° |
| 2026-05-06 22:45 | -34.55733 | -58.41468 | 26 ft | 2 kts | 272° |
| 2026-05-06 22:46 | -34.55734 | -58.41454 | 26 ft | 2 kts | 284° |
| 2026-05-06 22:47 | -34.55722 | -58.41501 | 26 ft | 13 kts | 287° |
| 2026-05-06 22:48 | -34.55761 | -58.41580 | 30 ft | 1 kts | 242° |
| 2026-05-06 22:48 | -34.55763 | -58.41585 | 26 ft | 4 kts | 245° |
| 2026-05-06 22:48 | -34.55769 | -58.41672 | 28 ft | 15 kts | 304° |
| 2026-05-06 22:48 | -34.55694 | -58.41817 | 29 ft | 20 kts | 303° |
| 2026-05-06 22:49 | -34.55612 | -58.41965 | 27 ft | 17 kts | 304° |
| 2026-05-06 22:49 | -34.55518 | -58.42126 | 28 ft | 29 kts | 308° |
| 2026-05-06 22:49 | -34.55455 | -58.42226 | 28 ft | 17 kts | 306° |
| 2026-05-06 22:49 | -34.55380 | -58.42348 | 28 ft | 20 kts | 304° |
| 2026-05-06 22:50 | -34.55425 | -58.42448 | 28 ft | 18 kts | 142° |
| 2026-05-06 22:50 | -34.55433 | -58.42439 | 28 ft | 0 kts | 134° |
| 2026-05-06 22:50 | -34.55515 | -58.42305 | 29 ft | 61 kts | 125° |
| 2026-05-06 22:50 | -34.55913 | -58.41588 | 27 ft | 139 kts | 123° |
| 2026-05-06 22:51 | -34.56502 | -58.40539 | 503 ft | 158 kts | 126° |
| 2026-05-06 22:51 | -34.57114 | -58.39432 | 1120 ft | 158 kts | 109° |
| 2026-05-06 22:51 | -34.57077 | -58.38165 | 1703 ft | 164 kts | 60° |
| 2026-05-06 22:51 | -34.56261 | -58.37105 | 2159 ft | 184 kts | 37° |
| 2026-05-06 22:52 | -34.55147 | -58.36155 | 2589 ft | 208 kts | 31° |
| 2026-05-06 22:52 | -34.53858 | -58.35160 | 3122 ft | 230 kts | 30° |
| 2026-05-06 22:52 | -34.52511 | -58.33962 | 3550 ft | 254 kts | 45° |
| 2026-05-06 22:52 | -34.51634 | -58.32002 | 4025 ft | 274 kts | 74° |
| 2026-05-06 22:53 | -34.51621 | -58.29696 | 4893 ft | 285 kts | 102° |
| 2026-05-06 22:53 | -34.52448 | -58.27484 | 5964 ft | 295 kts | 128° |
| 2026-05-06 22:53 | -34.53954 | -58.25849 | 6712 ft | 296 kts | 153° |
| 2026-05-06 22:53 | -34.55867 | -58.25116 | 7310 ft | 291 kts | 180° |
| 2026-05-06 22:54 | -34.57641 | -58.25314 | 7857 ft | 287 kts | 197° |
| 2026-05-06 22:54 | -34.59306 | -58.25859 | 8377 ft | 287 kts | 200° |
| 2026-05-06 22:54 | -34.61257 | -58.26496 | 9018 ft | 290 kts | 197° |
| 2026-05-06 22:54 | -34.63251 | -58.27021 | 9663 ft | 294 kts | 194° |
| 2026-05-06 22:55 | -34.65308 | -58.27457 | 10240 ft | 310 kts | 192° |
| 2026-05-06 22:55 | -34.67500 | -58.27861 | 10835 ft | 331 kts | 191° |
| 2026-05-06 22:55 | -34.69860 | -58.28267 | 11451 ft | 348 kts | 191° |
| 2026-05-06 22:55 | -34.72237 | -58.28664 | 12065 ft | 353 kts | 191° |
| 2026-05-06 22:56 | -34.74697 | -58.29074 | 12693 ft | 358 kts | 191° |
| 2026-05-06 22:56 | -34.77071 | -58.29472 | 13274 ft | 361 kts | 191° |
| 2026-05-06 22:56 | -34.79566 | -58.29894 | 13862 ft | 365 kts | 192° |
| 2026-05-06 22:56 | -34.82084 | -58.30322 | 14444 ft | 367 kts | 192° |
| 2026-05-06 22:57 | -34.84619 | -58.30754 | 15038 ft | 369 kts | 192° |
| 2026-05-06 22:57 | -34.87184 | -58.31193 | 15646 ft | 372 kts | 192° |
| 2026-05-06 22:57 | -34.89723 | -58.31628 | 16244 ft | 375 kts | 192° |
| 2026-05-06 22:57 | -34.92309 | -58.32072 | 16887 ft | 377 kts | 193° |
| 2026-05-06 22:58 | -34.94918 | -58.32520 | 17532 ft | 380 kts | 193° |
| 2026-05-06 22:58 | -34.97550 | -58.32973 | 18156 ft | 383 kts | 193° |
| 2026-05-06 22:58 | -35.00011 | -58.33397 | 18691 ft | 386 kts | 193° |
| 2026-05-06 22:58 | -35.02682 | -58.33858 | 19280 ft | 389 kts | 193° |
| 2026-05-06 22:59 | -35.05387 | -58.34325 | 19882 ft | 392 kts | 193° |
| 2026-05-06 22:59 | -35.08090 | -58.34792 | 20494 ft | 395 kts | 193° |
| 2026-05-06 22:59 | -35.10804 | -58.35382 | 21116 ft | 394 kts | 201° |
| 2026-05-06 22:59 | -35.13278 | -58.36733 | 21760 ft | 388 kts | 216° |
| 2026-05-06 23:00 | -35.15554 | -58.38530 | 22420 ft | 391 kts | 218° |
| 2026-05-06 23:00 | -35.17839 | -58.40372 | 23093 ft | 395 kts | 218° |
| 2026-05-06 23:00 | -35.20110 | -58.42201 | 23667 ft | 398 kts | 218° |
| 2026-05-06 23:00 | -35.22445 | -58.44073 | 24235 ft | 401 kts | 218° |
| 2026-05-06 23:01 | -35.24784 | -58.45942 | 24536 ft | 403 kts | 217° |
| 2026-05-06 23:01 | -35.27140 | -58.47819 | 24638 ft | 403 kts | 217° |
| 2026-05-06 23:01 | -35.29486 | -58.49687 | 24643 ft | 403 kts | 217° |
| 2026-05-06 23:01 | -35.31836 | -58.51561 | 24638 ft | 403 kts | 217° |
| 2026-05-06 23:02 | -35.34187 | -58.53436 | 24642 ft | 402 kts | 218° |
| 2026-05-06 23:02 | -35.36535 | -58.55312 | 24643 ft | 402 kts | 218° |
| 2026-05-06 23:02 | -35.38879 | -58.57187 | 24645 ft | 402 kts | 218° |
| 2026-05-06 23:02 | -35.41224 | -58.59065 | 24639 ft | 402 kts | 218° |
| 2026-05-06 23:03 | -35.43536 | -58.60917 | 24641 ft | 402 kts | 218° |
| 2026-05-06 23:03 | -35.45913 | -58.62823 | 24643 ft | 402 kts | 218° |
| 2026-05-06 23:03 | -35.48253 | -58.64700 | 24644 ft | 402 kts | 218° |
| 2026-05-06 23:03 | -35.50562 | -58.66554 | 24641 ft | 401 kts | 218° |
| 2026-05-06 23:04 | -35.52748 | -58.68310 | 24650 ft | 401 kts | 218° |
| 2026-05-06 23:04 | -35.54016 | -58.69329 | 24647 ft | 401 kts | 218° |
| 2026-05-06 23:04 | -35.56007 | -58.70931 | 24649 ft | 401 kts | 219° |
| 2026-05-06 23:04 | -35.58083 | -58.72589 | 24647 ft | 402 kts | 218° |
| 2026-05-06 23:05 | -35.60411 | -58.74451 | 24656 ft | 400 kts | 218° |
| 2026-05-06 23:05 | -35.62718 | -58.76309 | 24656 ft | 400 kts | 218° |
| 2026-05-06 23:05 | -35.65046 | -58.78190 | 24660 ft | 400 kts | 218° |
| 2026-05-06 23:05 | -35.67364 | -58.80063 | 24671 ft | 400 kts | 218° |
| 2026-05-06 23:06 | -35.69690 | -58.81943 | 24663 ft | 400 kts | 218° |
| 2026-05-06 23:06 | -35.71620 | -58.83504 | 24665 ft | 400 kts | 218° |
| 2026-05-06 23:06 | -35.73933 | -58.85375 | 24668 ft | 400 kts | 218° |
| 2026-05-06 23:06 | -35.76231 | -58.87235 | 24674 ft | 400 kts | 218° |
| 2026-05-06 23:07 | -35.78558 | -58.89120 | 24676 ft | 400 kts | 218° |
| 2026-05-06 23:07 | -35.80882 | -58.91003 | 24674 ft | 400 kts | 218° |
| 2026-05-06 23:07 | -35.83207 | -58.92888 | 24680 ft | 400 kts | 218° |
| 2026-05-06 23:07 | -35.85533 | -58.94777 | 24687 ft | 400 kts | 218° |
| 2026-05-06 23:08 | -35.87862 | -58.96668 | 24685 ft | 401 kts | 218° |
| 2026-05-06 23:08 | -35.90190 | -58.98560 | 24689 ft | 400 kts | 218° |
| 2026-05-06 23:08 | -35.92517 | -59.00452 | 24686 ft | 400 kts | 218° |
| 2026-05-06 23:08 | -35.94844 | -59.02346 | 24688 ft | 400 kts | 219° |
| 2026-05-06 23:09 | -35.97181 | -59.04249 | 24689 ft | 401 kts | 219° |
| 2026-05-06 23:09 | -35.99504 | -59.06142 | 24689 ft | 401 kts | 219° |
| 2026-05-06 23:09 | -36.01762 | -59.07984 | 24688 ft | 401 kts | 219° |
| 2026-05-06 23:09 | -36.04165 | -59.09945 | 24695 ft | 401 kts | 219° |
| 2026-05-06 23:10 | -36.06486 | -59.11841 | 24690 ft | 401 kts | 219° |
| 2026-05-06 23:10 | -36.08795 | -59.13728 | 24691 ft | 401 kts | 219° |
| 2026-05-06 23:10 | -36.11120 | -59.15629 | 24696 ft | 401 kts | 219° |
| 2026-05-06 23:10 | -36.13399 | -59.17591 | 24700 ft | 397 kts | 225° |
| 2026-05-06 23:11 | -36.15417 | -59.19905 | 24696 ft | 395 kts | 229° |
| 2026-05-06 23:11 | -36.17411 | -59.22246 | 24691 ft | 395 kts | 229° |
| 2026-05-06 23:11 | -36.19400 | -59.24584 | 24691 ft | 395 kts | 229° |
| 2026-05-06 23:11 | -36.21399 | -59.26932 | 24696 ft | 395 kts | 229° |
| 2026-05-06 23:12 | -36.23390 | -59.29269 | 24693 ft | 395 kts | 229° |
| 2026-05-06 23:12 | -36.25391 | -59.31617 | 24693 ft | 395 kts | 229° |
| 2026-05-06 23:12 | -36.27379 | -59.33952 | 24689 ft | 395 kts | 229° |
| 2026-05-06 23:12 | -36.29378 | -59.36301 | 24695 ft | 395 kts | 229° |
| 2026-05-06 23:13 | -36.31327 | -59.38594 | 24692 ft | 395 kts | 229° |
| 2026-05-06 23:13 | -36.33273 | -59.40885 | 24688 ft | 395 kts | 229° |
| 2026-05-06 23:13 | -36.35288 | -59.43259 | 24687 ft | 395 kts | 229° |
| 2026-05-06 23:13 | -36.37286 | -59.45616 | 24690 ft | 395 kts | 229° |
| 2026-05-06 23:14 | -36.39276 | -59.47965 | 24689 ft | 396 kts | 229° |
| 2026-05-06 23:14 | -36.40602 | -59.49531 | 24688 ft | 395 kts | 229° |
| 2026-05-06 23:14 | -36.43244 | -59.52654 | 24688 ft | 395 kts | 229° |
| 2026-05-06 23:14 | -36.45233 | -59.55006 | 24692 ft | 395 kts | 229° |
| 2026-05-06 23:15 | -36.47224 | -59.57364 | 24686 ft | 396 kts | 229° |
| 2026-05-06 23:15 | -36.48545 | -59.58929 | 24687 ft | 395 kts | 229° |
| 2026-05-06 23:15 | -36.50567 | -59.61325 | 24692 ft | 395 kts | 230° |
| 2026-05-06 23:15 | -36.52525 | -59.63648 | 24693 ft | 395 kts | 230° |
| 2026-05-06 23:16 | -36.54289 | -59.65741 | 24696 ft | 396 kts | 230° |
| 2026-05-06 23:16 | -36.56282 | -59.68109 | 24682 ft | 396 kts | 230° |
| 2026-05-06 23:16 | -36.58272 | -59.70475 | 24690 ft | 396 kts | 230° |
| 2026-05-06 23:16 | -36.60258 | -59.72838 | 24679 ft | 396 kts | 230° |
| 2026-05-06 23:17 | -36.62250 | -59.75210 | 24695 ft | 396 kts | 230° |
| 2026-05-06 23:17 | -36.64243 | -59.77585 | 24676 ft | 396 kts | 230° |
| 2026-05-06 23:17 | -36.66235 | -59.79960 | 24685 ft | 396 kts | 230° |
| 2026-05-06 23:17 | -36.68224 | -59.82334 | 24685 ft | 396 kts | 230° |
| 2026-05-06 23:18 | -36.70214 | -59.84710 | 24684 ft | 397 kts | 230° |
| 2026-05-06 23:18 | -36.72206 | -59.87091 | 24680 ft | 396 kts | 230° |
| 2026-05-06 23:18 | -36.74192 | -59.89466 | 24687 ft | 396 kts | 230° |
| 2026-05-06 23:18 | -36.76184 | -59.91850 | 24687 ft | 396 kts | 230° |
| 2026-05-06 23:19 | -36.78178 | -59.94238 | 24687 ft | 397 kts | 230° |
| 2026-05-06 23:19 | -36.80111 | -59.96556 | 24683 ft | 397 kts | 230° |
| 2026-05-06 23:19 | -36.82154 | -59.99006 | 24685 ft | 397 kts | 230° |
| 2026-05-06 23:19 | -36.84140 | -60.01391 | 24683 ft | 397 kts | 230° |
| 2026-05-06 23:20 | -36.86134 | -60.03787 | 24682 ft | 398 kts | 230° |
| 2026-05-06 23:20 | -36.88003 | -60.06034 | 24683 ft | 397 kts | 230° |
| 2026-05-06 23:20 | -36.90001 | -60.08437 | 24686 ft | 397 kts | 230° |
| 2026-05-06 23:20 | -36.91986 | -60.10828 | 24683 ft | 397 kts | 230° |
| 2026-05-06 23:21 | -36.93983 | -60.13235 | 24686 ft | 398 kts | 230° |
| 2026-05-06 23:21 | -36.95980 | -60.15643 | 24685 ft | 398 kts | 230° |
| 2026-05-06 23:21 | -36.97974 | -60.18049 | 24687 ft | 398 kts | 230° |
| 2026-05-06 23:21 | -36.99966 | -60.20455 | 24686 ft | 398 kts | 230° |
| 2026-05-06 23:22 | -37.01872 | -60.22759 | 24694 ft | 399 kts | 230° |
| 2026-05-06 23:22 | -37.03865 | -60.25170 | 24689 ft | 398 kts | 230° |
| 2026-05-06 23:22 | -37.05868 | -60.27594 | 24689 ft | 399 kts | 230° |
| 2026-05-06 23:22 | -37.07862 | -60.30010 | 24683 ft | 399 kts | 230° |
| 2026-05-06 23:23 | -37.09850 | -60.32421 | 24691 ft | 400 kts | 231° |
| 2026-05-06 23:23 | -37.11853 | -60.34851 | 24697 ft | 399 kts | 231° |
| 2026-05-06 23:23 | -37.13840 | -60.37264 | 24686 ft | 399 kts | 231° |
| 2026-05-06 23:23 | -37.15845 | -60.39701 | 24692 ft | 399 kts | 231° |
| 2026-05-06 23:24 | -37.17835 | -60.42122 | 24693 ft | 400 kts | 231° |
| 2026-05-06 23:24 | -37.19832 | -60.44552 | 24693 ft | 400 kts | 231° |
| 2026-05-06 23:24 | -37.21835 | -60.46992 | 24691 ft | 400 kts | 231° |
| 2026-05-06 23:24 | -37.23830 | -60.49424 | 24695 ft | 400 kts | 231° |
| 2026-05-06 23:25 | -37.25823 | -60.51856 | 24695 ft | 401 kts | 231° |
| 2026-05-06 23:25 | -37.27798 | -60.54267 | 24698 ft | 401 kts | 231° |
| 2026-05-06 23:25 | -37.29797 | -60.56710 | 24697 ft | 401 kts | 231° |
| 2026-05-06 23:25 | -37.31793 | -60.59151 | 24698 ft | 401 kts | 231° |
| 2026-05-06 23:26 | -37.33789 | -60.61594 | 24696 ft | 402 kts | 231° |
| 2026-05-06 23:26 | -37.35793 | -60.64048 | 24699 ft | 402 kts | 231° |
| 2026-05-06 23:26 | -37.37799 | -60.66506 | 24699 ft | 402 kts | 231° |
| 2026-05-06 23:26 | -37.39799 | -60.68960 | 24698 ft | 402 kts | 231° |
| 2026-05-06 23:27 | -37.41803 | -60.71420 | 24697 ft | 403 kts | 231° |
| 2026-05-06 23:27 | -37.43782 | -60.73852 | 24700 ft | 402 kts | 231° |
| 2026-05-06 23:27 | -37.45757 | -60.76280 | 24703 ft | 402 kts | 231° |
| 2026-05-06 23:27 | -37.47771 | -60.78759 | 24700 ft | 403 kts | 231° |
| 2026-05-06 23:28 | -37.49772 | -60.81223 | 24703 ft | 404 kts | 231° |
| 2026-05-06 23:28 | -37.51790 | -60.83711 | 24699 ft | 404 kts | 231° |
| 2026-05-06 23:28 | -37.53798 | -60.86187 | 24700 ft | 404 kts | 231° |
| 2026-05-06 23:28 | -37.55802 | -60.88661 | 24700 ft | 404 kts | 231° |
| 2026-05-06 23:29 | -37.57815 | -60.91149 | 24700 ft | 405 kts | 231° |
| 2026-05-06 23:29 | -37.59797 | -60.93600 | 24700 ft | 405 kts | 231° |
| 2026-05-06 23:29 | -37.61829 | -60.96113 | 24699 ft | 405 kts | 231° |
| 2026-05-06 23:29 | -37.63821 | -60.98581 | 24697 ft | 405 kts | 231° |
| 2026-05-06 23:30 | -37.65839 | -61.01082 | 24696 ft | 406 kts | 231° |
| 2026-05-06 23:30 | -37.67849 | -61.03576 | 24700 ft | 406 kts | 231° |
| 2026-05-06 23:30 | -37.69866 | -61.06079 | 24695 ft | 406 kts | 231° |
| 2026-05-06 23:30 | -37.71864 | -61.08562 | 24604 ft | 406 kts | 231° |
| 2026-05-06 23:31 | -37.73873 | -61.11059 | 24250 ft | 406 kts | 231° |
| 2026-05-06 23:31 | -37.75886 | -61.13564 | 23703 ft | 404 kts | 231° |
| 2026-05-06 23:31 | -37.77878 | -61.16040 | 23112 ft | 398 kts | 231° |
| 2026-05-06 23:31 | -37.79843 | -61.18487 | 22443 ft | 392 kts | 231° |
| 2026-05-06 23:32 | -37.81767 | -61.20886 | 21791 ft | 387 kts | 231° |
| 2026-05-06 23:32 | -37.83652 | -61.23240 | 21168 ft | 383 kts | 231° |
| 2026-05-06 23:32 | -37.85538 | -61.25599 | 20543 ft | 379 kts | 231° |
| 2026-05-06 23:32 | -37.87407 | -61.27937 | 19928 ft | 373 kts | 231° |
| 2026-05-06 23:33 | -37.89238 | -61.30228 | 19335 ft | 368 kts | 231° |
| 2026-05-06 23:33 | -37.91045 | -61.32492 | 18745 ft | 363 kts | 231° |
| 2026-05-06 23:33 | -37.92828 | -61.34727 | 18177 ft | 359 kts | 231° |
| 2026-05-06 23:33 | -37.94595 | -61.36945 | 17541 ft | 354 kts | 231° |
| 2026-05-06 23:34 | -37.96335 | -61.39133 | 16891 ft | 352 kts | 231° |
| 2026-05-06 23:34 | -37.98070 | -61.41318 | 16255 ft | 350 kts | 230° |
| 2026-05-06 23:34 | -37.99705 | -61.43375 | 15667 ft | 346 kts | 230° |
| 2026-05-06 23:34 | -38.01410 | -61.45521 | 15054 ft | 342 kts | 230° |
| 2026-05-06 23:35 | -38.03091 | -61.47639 | 14462 ft | 340 kts | 230° |
| 2026-05-06 23:35 | -38.04765 | -61.49750 | 13874 ft | 339 kts | 229° |
| 2026-05-06 23:35 | -38.06433 | -61.51853 | 13272 ft | 336 kts | 229° |
| 2026-05-06 23:35 | -38.08073 | -61.53925 | 12632 ft | 332 kts | 229° |
| 2026-05-06 23:36 | -38.09703 | -61.55985 | 11994 ft | 329 kts | 228° |
| 2026-05-06 23:36 | -38.11316 | -61.58023 | 11366 ft | 325 kts | 228° |
| 2026-05-06 23:36 | -38.12910 | -61.60039 | 10757 ft | 321 kts | 227° |
| 2026-05-06 23:36 | -38.14466 | -61.62007 | 10171 ft | 318 kts | 227° |
| 2026-05-06 23:37 | -38.16021 | -61.63977 | 9591 ft | 314 kts | 227° |
| 2026-05-06 23:37 | -38.17533 | -61.65891 | 8951 ft | 311 kts | 227° |
| 2026-05-06 23:37 | -38.19066 | -61.67829 | 8315 ft | 309 kts | 227° |
| 2026-05-06 23:37 | -38.20583 | -61.69751 | 7703 ft | 307 kts | 226° |
| 2026-05-06 23:38 | -38.22093 | -61.71666 | 7085 ft | 306 kts | 226° |
| 2026-05-06 23:38 | -38.23606 | -61.73587 | 6484 ft | 308 kts | 226° |
| 2026-05-06 23:38 | -38.25120 | -61.75510 | 5882 ft | 308 kts | 226° |
| 2026-05-06 23:38 | -38.26633 | -61.77435 | 5258 ft | 308 kts | 226° |
| 2026-05-06 23:39 | -38.28139 | -61.79354 | 4664 ft | 310 kts | 225° |
| 2026-05-06 23:39 | -38.29676 | -61.81309 | 4032 ft | 309 kts | 225° |
| 2026-05-06 23:39 | -38.31198 | -61.83241 | 3406 ft | 307 kts | 225° |
| 2026-05-06 23:39 | -38.32671 | -61.85110 | 3073 ft | 296 kts | 225° |
| 2026-05-06 23:40 | -38.34128 | -61.86961 | 2981 ft | 303 kts | 225° |
| 2026-05-06 23:40 | -38.35578 | -61.88808 | 2961 ft | 301 kts | 225° |
| 2026-05-06 23:40 | -38.37065 | -61.90704 | 2956 ft | 302 kts | 225° |
| 2026-05-06 23:40 | -38.38549 | -61.92597 | 2956 ft | 301 kts | 225° |
| 2026-05-06 23:41 | -38.40026 | -61.94481 | 2965 ft | 299 kts | 226° |
| 2026-05-06 23:41 | -38.41494 | -61.96356 | 2960 ft | 300 kts | 226° |
| 2026-05-06 23:41 | -38.42968 | -61.98239 | 2969 ft | 299 kts | 226° |
| 2026-05-06 23:41 | -38.44440 | -62.00122 | 2970 ft | 296 kts | 225° |
| 2026-05-06 23:42 | -38.45844 | -62.01918 | 2975 ft | 276 kts | 226° |
| 2026-05-06 23:42 | -38.47154 | -62.03592 | 2972 ft | 256 kts | 226° |
| 2026-05-06 23:42 | -38.48372 | -62.05150 | 2974 ft | 240 kts | 226° |
| 2026-05-06 23:42 | -38.49508 | -62.06605 | 2972 ft | 223 kts | 226° |
| 2026-05-06 23:43 | -38.50545 | -62.07938 | 2977 ft | 205 kts | 226° |
| 2026-05-06 23:43 | -38.51514 | -62.09182 | 2977 ft | 190 kts | 226° |
| 2026-05-06 23:43 | -38.52411 | -62.10336 | 2982 ft | 177 kts | 226° |
| 2026-05-06 23:43 | -38.53221 | -62.11494 | 2987 ft | 176 kts | 238° |
| 2026-05-06 23:44 | -38.53660 | -62.12929 | 2992 ft | 175 kts | 255° |
| 2026-05-06 23:44 | -38.53975 | -62.14431 | 2986 ft | 175 kts | 254° |
| 2026-05-06 23:44 | -38.54311 | -62.15921 | 2990 ft | 175 kts | 253° |
| 2026-05-06 23:44 | -38.54655 | -62.17412 | 2990 ft | 174 kts | 253° |
| 2026-05-06 23:45 | -38.55000 | -62.18897 | 2989 ft | 174 kts | 253° |
| 2026-05-06 23:45 | -38.55427 | -62.20330 | 2985 ft | 174 kts | 233° |
| 2026-05-06 23:45 | -38.56441 | -62.21119 | 2987 ft | 177 kts | 187° |
| 2026-05-06 23:45 | -38.57676 | -62.20982 | 2864 ft | 181 kts | 168° |
| 2026-05-06 23:46 | -38.58839 | -62.20544 | 2651 ft | 181 kts | 163° |
| 2026-05-06 23:46 | -38.60035 | -62.20083 | 2430 ft | 175 kts | 166° |
| 2026-05-06 23:46 | -38.61220 | -62.19642 | 2227 ft | 181 kts | 165° |
| 2026-05-06 23:46 | -38.62417 | -62.19195 | 2010 ft | 179 kts | 165° |
| 2026-05-06 23:47 | -38.63610 | -62.18750 | 1812 ft | 175 kts | 165° |
| 2026-05-06 23:47 | -38.64709 | -62.18338 | 1620 ft | 153 kts | 166° |
| 2026-05-06 23:47 | -38.65680 | -62.17977 | 1429 ft | 144 kts | 166° |
| 2026-05-06 23:47 | -38.66637 | -62.17620 | 1252 ft | 142 kts | 165° |
| 2026-05-06 23:48 | -38.67555 | -62.17276 | 1073 ft | 139 kts | 162° |
| 2026-05-06 23:48 | -38.68479 | -62.16931 | 897 ft | 138 kts | 159° |
| 2026-05-06 23:48 | -38.69400 | -62.16591 | 723 ft | 137 kts | 158° |
| 2026-05-06 23:48 | -38.70313 | -62.16278 | 538 ft | 135 kts | 155° |
| 2026-05-06 23:49 | -38.71210 | -62.15929 | 412 ft | 135 kts | 154° |
| 2026-05-06 23:49 | -38.72092 | -62.15577 | 266 ft | 130 kts | 155° |
| 2026-05-06 23:49 | -38.72811 | -62.15268 | 238 ft | 88 kts | 161° |
| 2026-05-06 23:49 | -38.73286 | -62.15115 | 232 ft | 35 kts | 171° |
| 2026-05-06 23:50 | -38.73448 | -62.15054 | 232 ft | 26 kts | 172° |
| 2026-05-06 23:50 | -38.73485 | -62.15059 | 234 ft | 0 kts | 254° |
| 2026-05-06 23:50 | -38.73482 | -62.15062 | 235 ft | 0 kts | 289° |
| 2026-05-06 23:51 | -38.73474 | -62.15065 | 235 ft | 5 kts | 332° |
| 2026-05-06 23:51 | -38.73396 | -62.15100 | 236 ft | 18 kts | 343° |
| 2026-05-06 23:51 | -38.73232 | -62.15156 | 237 ft | 30 kts | 340° |
| 2026-05-06 23:51 | -38.73019 | -62.15236 | 234 ft | 37 kts | 344° |
| 2026-05-06 23:52 | -38.72765 | -62.15329 | 239 ft | 37 kts | 343° |
| 2026-05-06 23:52 | -38.72521 | -62.15423 | 244 ft | 36 kts | 342° |
| 2026-05-06 23:52 | -38.72273 | -62.15513 | 248 ft | 34 kts | 342° |
| 2026-05-06 23:52 | -38.72039 | -62.15602 | 249 ft | 33 kts | 345° |
| 2026-05-06 23:53 | -38.71795 | -62.15689 | 254 ft | 39 kts | 347° |
| 2026-05-06 23:53 | -38.71625 | -62.15765 | 257 ft | 23 kts | 326° |
| 2026-05-06 23:53 | -38.71590 | -62.15939 | 257 ft | 23 kts | 241° |
| 2026-05-06 23:53 | -38.71647 | -62.16097 | 256 ft | 20 kts | 254° |
| 2026-05-06 23:54 | -38.71644 | -62.16240 | 257 ft | 12 kts | 270° |
| 2026-05-06 23:54 | -38.71644 | -62.16308 | 256 ft | 0 kts | 274° |